createdAt,value
2019-05-07T00:01:04.214Z,65.00
2019-05-07T00:04:08.931Z,64.70
2019-05-07T00:07:13.895Z,64.60
2019-05-07T00:10:18.423Z,64.90
2019-05-07T00:13:23.426Z,64.60
2019-05-07T00:16:27.824Z,65.00
2019-05-07T00:19:32.518Z,64.60
2019-05-07T00:22:37.210Z,64.60
2019-05-07T00:25:42.382Z,64.40
2019-05-07T00:28:46.839Z,64.10
2019-05-07T00:31:52.066Z,64.60
2019-05-07T00:35:02.520Z,64.30
2019-05-07T00:38:09.914Z,64.00
2019-05-07T00:41:29.067Z,65.30
2019-05-07T00:44:35.153Z,64.60
2019-05-07T00:47:39.537Z,65.00
2019-05-07T00:50:45.413Z,65.80
2019-05-07T00:53:51.922Z,65.20
2019-05-07T00:56:55.787Z,64.90
2019-05-07T01:00:02.175Z,64.30
2019-05-07T01:03:06.145Z,64.80
2019-05-07T01:06:12.739Z,64.90
2019-05-07T01:09:16.917Z,64.40
2019-05-07T01:12:22.230Z,64.80
2019-05-07T01:15:31.046Z,64.50
2019-05-07T01:18:33.185Z,65.00
2019-05-07T01:21:37.463Z,64.60
2019-05-07T01:24:42.950Z,65.10
2019-05-07T01:27:47.409Z,64.40
2019-05-07T01:30:52.845Z,65.10
2019-05-07T01:34:16.414Z,64.60
2019-05-07T01:37:22.934Z,64.40
2019-05-07T01:40:26.799Z,64.60
2019-05-07T01:43:32.099Z,65.00
2019-05-07T01:46:36.506Z,64.90
2019-05-07T01:49:42.178Z,65.30
2019-05-07T01:52:46.587Z,64.50
2019-05-07T01:55:52.401Z,65.30
2019-05-07T01:58:56.834Z,65.40
2019-05-07T02:02:06.104Z,65.30
2019-05-07T02:05:27.588Z,65.60
2019-05-07T02:08:53.715Z,65.60
2019-05-07T02:12:15.874Z,65.80
2019-05-07T02:15:22.504Z,65.90
2019-05-07T02:18:26.291Z,65.60
2019-05-07T02:21:32.752Z,65.70
2019-05-07T02:24:36.583Z,66.80
2019-05-07T02:27:42.076Z,66.50
2019-05-07T02:30:46.571Z,66.30
2019-05-07T02:33:53.872Z,66.80
2019-05-07T02:36:56.983Z,66.50
2019-05-07T02:40:33.653Z,66.50
2019-05-07T02:43:36.159Z,66.60
2019-05-07T02:46:54.561Z,66.90
2019-05-07T02:50:03.359Z,66.60
2019-05-07T02:53:27.338Z,66.80
2019-05-07T02:56:33.250Z,66.80
2019-05-07T02:59:37.995Z,66.90
2019-05-07T03:02:43.723Z,67.20
2019-05-07T03:05:48.352Z,67.10
2019-05-07T03:08:53.549Z,67.40
2019-05-07T03:11:57.996Z,67.30
2019-05-07T03:15:04.493Z,67.60
2019-05-07T03:18:08.591Z,67.80
2019-05-07T03:21:15.907Z,67.90
2019-05-07T03:24:26.175Z,68.40
2019-05-07T03:27:33.747Z,68.30
2019-05-07T03:30:45.670Z,67.90
2019-05-07T03:34:06.833Z,68.10
2019-05-07T03:37:13.549Z,68.10
2019-05-07T03:40:18.108Z,68.60
2019-05-07T03:43:24.068Z,68.40
2019-05-07T03:46:28.402Z,68.10
2019-05-07T03:49:34.330Z,68.50
2019-05-07T03:52:38.859Z,68.10
2019-05-07T03:55:44.744Z,68.10
2019-05-07T03:58:49.354Z,68.30
2019-05-07T04:01:53.959Z,67.90
2019-05-07T04:04:58.288Z,68.20
2019-05-07T04:08:03.496Z,68.40
2019-05-07T04:11:07.941Z,68.20
2019-05-07T04:14:13.652Z,68.90
2019-05-07T04:17:23.333Z,68.30
2019-05-07T04:20:24.191Z,68.60
2019-05-07T04:23:28.624Z,68.20
2019-05-07T04:26:42.783Z,67.70
2019-05-07T04:29:45.652Z,68.10
2019-05-07T04:32:53.001Z,68.20
2019-05-07T04:36:04.121Z,68.40
2019-05-07T04:39:09.008Z,69.00
2019-05-07T04:42:13.464Z,69.40
2019-05-07T04:45:17.833Z,68.80
2019-05-07T04:48:23.252Z,68.40
2019-05-07T04:51:34.941Z,68.40
2019-05-07T04:54:39.298Z,68.50
2019-05-07T04:57:44.005Z,67.80
2019-05-07T05:00:48.528Z,67.60
2019-05-07T05:03:54.053Z,67.70
2019-05-07T05:06:58.677Z,67.50
2019-05-07T05:10:03.202Z,67.60
2019-05-07T05:13:07.625Z,67.30
2019-05-07T05:16:23.893Z,67.90
2019-05-07T05:19:28.315Z,68.10
2019-05-07T05:22:42.381Z,68.50
2019-05-07T05:25:46.520Z,68.60
2019-05-07T05:28:52.541Z,69.00
2019-05-07T05:31:57.051Z,68.90
2019-05-07T05:35:08.515Z,68.20
2019-05-07T05:38:12.962Z,68.50
2019-05-07T05:41:17.295Z,68.40
2019-05-07T05:44:32.464Z,68.70
2019-05-07T05:47:36.987Z,68.90
2019-05-07T05:51:02.697Z,68.10
2019-05-07T05:54:29.311Z,67.90
2019-05-07T05:57:52.664Z,67.70
2019-05-07T06:01:12.952Z,68.00
2019-05-07T06:04:27.386Z,67.70
2019-05-07T06:07:36.549Z,67.80
2019-05-07T06:10:51.931Z,67.70
2019-05-07T06:14:18.572Z,68.10
2019-05-07T06:17:44.669Z,67.50
2019-05-07T06:21:02.900Z,67.20
2019-05-07T06:24:08.501Z,67.10
2019-05-07T06:27:13.183Z,67.40
2019-05-07T06:30:18.451Z,67.20
2019-05-07T06:33:23.224Z,67.70
2019-05-07T06:36:28.162Z,65.70
2019-05-07T06:39:39.112Z,65.90
2019-05-07T06:43:08.225Z,65.00
2019-05-07T06:46:12.688Z,65.20
2019-05-07T06:49:16.990Z,65.60
2019-05-07T06:52:22.406Z,65.00
2019-05-07T06:55:26.717Z,64.70
2019-05-07T06:58:55.962Z,66.00
2019-05-07T07:02:17.879Z,65.90
2019-05-07T07:05:42.435Z,64.50
2019-05-07T07:08:53.735Z,63.30
2019-05-07T07:12:02.086Z,63.40
2019-05-07T07:15:06.782Z,61.70
2019-05-07T07:18:12.254Z,61.60
2019-05-07T07:21:16.770Z,61.80
2019-05-07T07:24:22.220Z,62.80
2019-05-07T07:27:26.748Z,62.80
2019-05-07T07:30:55.955Z,62.60
2019-05-07T07:34:02.310Z,62.60
2019-05-07T07:37:16.837Z,62.50
2019-05-07T07:40:49.805Z,62.50
2019-05-07T07:43:54.566Z,62.50
2019-05-07T07:46:59.675Z,61.60
2019-05-07T07:50:04.967Z,61.60
2019-05-07T07:53:09.427Z,60.80
2019-05-07T07:56:47.877Z,60.90
2019-05-07T08:00:07.259Z,61.00
2019-05-07T08:03:13.384Z,60.90
2019-05-07T08:06:18.020Z,60.50
2019-05-07T08:09:25.519Z,59.70
2019-05-07T08:12:28.345Z,59.60
2019-05-07T08:15:33.176Z,59.70
2019-05-07T08:18:39.679Z,59.90
2019-05-07T08:21:44.154Z,59.80
2019-05-07T08:24:48.435Z,59.30
2019-05-07T08:27:52.756Z,59.50
2019-05-07T08:31:07.763Z,59.40
2019-05-07T08:34:26.106Z,59.50
2019-05-07T08:37:32.044Z,58.70
2019-05-07T08:40:36.854Z,57.10
2019-05-07T08:43:42.760Z,57.50
2019-05-07T08:47:05.461Z,57.50
2019-05-07T08:50:11.725Z,57.90
2019-05-07T08:53:15.888Z,56.80
2019-05-07T08:56:22.362Z,57.50
2019-05-07T08:59:26.772Z,57.50
2019-05-07T09:02:32.623Z,57.40
2019-05-07T09:05:37.205Z,57.50
2019-05-07T09:08:43.660Z,58.20
2019-05-07T09:11:47.802Z,57.50
2019-05-07T09:14:52.946Z,57.40
2019-05-07T09:17:59.309Z,57.40
2019-05-07T09:21:03.690Z,57.30
2019-05-07T09:24:08.684Z,57.30
2019-05-07T09:27:37.679Z,56.60
2019-05-07T09:30:52.827Z,55.60
2019-05-07T09:33:57.264Z,56.50
2019-05-07T09:37:03.298Z,56.60
2019-05-07T09:40:07.608Z,56.50
2019-05-07T09:43:12.105Z,56.20
2019-05-07T09:46:16.558Z,56.10
2019-05-07T09:49:22.251Z,55.70
2019-05-07T09:52:26.788Z,55.30
2019-05-07T09:55:32.570Z,55.70
2019-05-07T09:58:39.142Z,55.80
2019-05-07T10:01:43.269Z,55.30
2019-05-07T10:04:47.683Z,55.40
2019-05-07T10:07:52.659Z,55.20
2019-05-07T10:10:57.052Z,54.50
2019-05-07T10:14:05.286Z,52.40
2019-05-07T10:17:18.311Z,53.40
2019-05-07T10:20:23.326Z,53.40
2019-05-07T10:23:27.680Z,51.80
2019-05-07T10:26:32.278Z,52.00
2019-05-07T10:29:37.307Z,50.90
2019-05-07T10:32:42.156Z,50.80
2019-05-07T10:35:46.745Z,51.60
2019-05-07T10:38:52.041Z,49.60
2019-05-07T10:42:15.523Z,49.30
2019-05-07T10:45:42.223Z,49.60
2019-05-07T10:48:53.672Z,50.00
2019-05-07T10:51:58.096Z,49.90
2019-05-07T10:55:02.959Z,50.10
2019-05-07T10:58:07.282Z,50.00
2019-05-07T11:01:13.784Z,50.10
2019-05-07T11:04:18.108Z,50.70
2019-05-07T11:07:22.486Z,50.40
2019-05-07T11:10:26.917Z,50.50
2019-05-07T11:13:31.202Z,49.50
2019-05-07T11:16:43.080Z,49.20
2019-05-07T11:19:47.447Z,49.10
2019-05-07T11:22:52.331Z,48.70
2019-05-07T11:25:57.028Z,49.00
2019-05-07T11:29:02.403Z,49.50
2019-05-07T11:32:06.939Z,49.70
2019-05-07T11:35:14.624Z,49.00
2019-05-07T11:38:21.596Z,47.00
2019-05-07T11:41:32.977Z,44.60
2019-05-07T11:44:37.267Z,45.80
2019-05-07T11:47:41.651Z,46.60
2019-05-07T11:51:15.237Z,46.50
2019-05-07T11:54:19.782Z,45.50
2019-05-07T11:57:24.459Z,46.50
2019-05-07T12:00:33.532Z,47.30
2019-05-07T12:03:37.881Z,47.70
2019-05-07T12:06:42.275Z,47.90
2019-05-07T12:09:49.258Z,47.80
2019-05-07T12:12:53.642Z,48.50
2019-05-07T12:15:57.927Z,48.10
2019-05-07T12:19:02.440Z,45.30
2019-05-07T12:22:07.163Z,47.10
2019-05-07T12:25:12.128Z,47.40
2019-05-07T12:28:16.539Z,48.10
2019-05-07T12:31:38.768Z,48.20
2019-05-07T12:34:53.080Z,48.30
2019-05-07T12:37:58.662Z,48.70
2019-05-07T12:41:22.155Z,48.70
2019-05-07T12:44:26.654Z,49.10
2019-05-07T12:47:31.107Z,49.30
2019-05-07T12:50:35.544Z,49.50
2019-05-07T12:53:44.794Z,49.70
2019-05-07T12:56:49.594Z,50.00
2019-05-07T12:59:57.489Z,50.00
2019-05-07T13:03:33.317Z,50.20
2019-05-07T13:06:43.995Z,49.80
2019-05-07T13:09:48.410Z,49.70
2019-05-07T13:12:52.858Z,49.60
2019-05-07T13:15:59.282Z,49.20
2019-05-07T13:19:03.798Z,49.10
2019-05-07T13:22:08.335Z,49.70
2019-05-07T13:25:13.243Z,49.50
2019-05-07T13:28:19.445Z,50.10
2019-05-07T13:31:27.232Z,49.90
2019-05-07T13:34:33.817Z,49.90
2019-05-07T13:37:41.990Z,49.50
2019-05-07T13:41:05.517Z,49.80
2019-05-07T13:44:29.413Z,50.00
2019-05-07T13:47:39.581Z,49.80
2019-05-07T13:50:44.221Z,49.50
2019-05-07T13:53:49.472Z,50.30
2019-05-07T13:56:53.862Z,50.50
2019-05-07T13:59:58.559Z,50.80
2019-05-07T14:03:03.346Z,50.30
2019-05-07T14:06:08.113Z,50.10
2019-05-07T14:09:17.678Z,50.00
2019-05-07T14:12:23.067Z,50.30
2019-05-07T14:15:27.644Z,50.60
2019-05-07T14:18:32.678Z,50.70
2019-05-07T14:21:39.181Z,50.60
2019-05-07T14:24:43.473Z,50.60
2019-05-07T14:27:47.869Z,50.60
2019-05-07T14:30:52.611Z,50.90
2019-05-07T14:34:02.889Z,51.40
2019-05-07T14:37:22.100Z,52.00
2019-05-07T14:40:26.594Z,52.10
2019-05-07T14:43:48.636Z,51.30
2019-05-07T14:46:54.449Z,50.70
2019-05-07T14:49:59.063Z,49.60
2019-05-07T14:53:03.422Z,48.70
2019-05-07T14:56:07.900Z,47.50
2019-05-07T14:59:12.753Z,47.90
2019-05-07T15:02:17.635Z,47.90
2019-05-07T15:05:23.631Z,48.20
2019-05-07T15:08:28.165Z,48.50
2019-05-07T15:11:32.751Z,48.70
2019-05-07T15:14:37.509Z,49.00
2019-05-07T15:18:06.966Z,49.20
2019-05-07T15:21:12.299Z,49.20
2019-05-07T15:24:16.975Z,49.30
2019-05-07T15:27:22.772Z,49.30
2019-05-07T15:30:32.449Z,49.40
2019-05-07T15:33:38.313Z,50.70
2019-05-07T15:36:46.966Z,50.50
2019-05-07T15:39:52.699Z,50.30
2019-05-07T15:42:58.790Z,49.80
2019-05-07T15:46:04.075Z,49.40
2019-05-07T15:49:08.973Z,49.60
2019-05-07T15:52:19.369Z,49.60
2019-05-07T15:55:25.052Z,49.80
2019-05-07T15:58:33.136Z,49.90
2019-05-07T16:01:38.135Z,50.00
2019-05-07T16:04:43.425Z,48.40
2019-05-07T16:07:49.678Z,49.60
2019-05-07T16:10:55.069Z,48.90
2019-05-07T16:14:17.511Z,48.70
2019-05-07T16:17:35.376Z,49.10
2019-05-07T16:20:42.846Z,49.40
2019-05-07T16:23:47.473Z,49.40
2019-05-07T16:26:53.295Z,49.60
2019-05-07T16:29:58.290Z,49.60
2019-05-07T16:33:03.992Z,50.40
2019-05-07T16:36:09.016Z,50.00
2019-05-07T16:39:14.775Z,49.50
2019-05-07T16:42:21.840Z,49.30
2019-05-07T16:45:27.285Z,49.10
2019-05-07T16:48:32.835Z,48.10
2019-05-07T16:51:37.914Z,48.50
2019-05-07T16:54:45.141Z,49.70
2019-05-07T16:58:01.855Z,48.50
2019-05-07T17:01:09.015Z,48.40
2019-05-07T17:04:14.203Z,49.40
2019-05-07T17:07:22.083Z,49.00
2019-05-07T17:10:27.254Z,48.90
2019-05-07T17:13:32.016Z,48.90
2019-05-07T17:16:37.649Z,49.10
2019-05-07T17:19:42.616Z,49.40
2019-05-07T17:22:47.720Z,49.50
2019-05-07T17:25:52.702Z,49.80
2019-05-07T17:28:57.426Z,50.10
2019-05-07T17:32:02.445Z,51.20
2019-05-07T17:35:07.081Z,51.60
2019-05-07T17:38:12.862Z,51.30
2019-05-07T17:41:23.698Z,51.70
2019-05-07T17:44:24.203Z,52.20
2019-05-07T17:47:28.939Z,52.70
2019-05-07T17:50:42.560Z,53.10
2019-05-07T17:53:57.650Z,53.50
2019-05-07T17:56:53.890Z,53.90
2019-05-07T18:00:02.202Z,54.40
2019-05-07T18:03:26.581Z,54.80
2019-05-07T18:06:32.108Z,55.30
2019-05-07T18:09:37.657Z,55.80
2019-05-07T18:12:42.608Z,56.30
2019-05-07T18:15:48.049Z,56.80
2019-05-07T18:18:53.768Z,57.30
2019-05-07T18:21:58.418Z,57.80
2019-05-07T18:25:03.344Z,58.20
2019-05-07T18:28:08.727Z,58.60
2019-05-07T18:31:15.926Z,59.00
2019-05-07T18:34:20.564Z,59.60
2019-05-07T18:37:25.052Z,59.80
2019-05-07T18:40:29.761Z,60.30
2019-05-07T18:43:35.335Z,60.70
2019-05-07T18:46:45.082Z,61.10
2019-05-07T18:49:51.862Z,61.50
2019-05-07T18:52:57.119Z,61.80
2019-05-07T18:56:03.135Z,62.20
2019-05-07T18:59:07.667Z,62.70
2019-05-07T19:02:12.366Z,63.00
2019-05-07T19:05:19.443Z,63.10
2019-05-07T19:08:24.224Z,63.40
2019-05-07T19:11:29.582Z,65.60
2019-05-07T19:14:34.407Z,64.80
2019-05-07T19:17:39.178Z,64.80
2019-05-07T19:20:44.905Z,64.90
2019-05-07T19:23:49.477Z,65.00
2019-05-07T19:26:54.905Z,65.20
2019-05-07T19:29:59.558Z,66.50
2019-05-07T19:33:05.069Z,66.80
2019-05-07T19:36:10.977Z,66.90
2019-05-07T19:39:16.742Z,67.20
2019-05-07T19:42:21.704Z,67.50
2019-05-07T19:45:27.259Z,67.90
2019-05-07T19:48:32.431Z,68.00
2019-05-07T19:51:37.666Z,68.30
2019-05-07T19:54:57.980Z,68.40
2019-05-07T19:57:56.726Z,68.50
2019-05-07T20:01:03.823Z,68.80
2019-05-07T20:04:09.320Z,69.40
2019-05-07T20:07:14.481Z,68.90
2019-05-07T20:10:28.597Z,69.20
2019-05-07T20:13:33.962Z,70.10
2019-05-07T20:16:42.051Z,69.30
2019-05-07T20:19:46.842Z,69.20
2019-05-07T20:22:51.882Z,69.40
2019-05-07T20:25:56.851Z,69.40
2019-05-07T20:29:03.064Z,69.50
2019-05-07T20:32:08.009Z,69.80
2019-05-07T20:35:13.469Z,70.00
2019-05-07T20:38:18.151Z,70.60
2019-05-07T20:41:23.457Z,70.20
2019-05-07T20:44:28.222Z,70.30
2019-05-07T20:47:34.464Z,70.50
2019-05-07T20:50:38.938Z,70.80
2019-05-07T20:54:23.094Z,70.70
2019-05-07T20:57:42.661Z,70.80
2019-05-07T21:00:47.414Z,70.80
2019-05-07T21:03:52.695Z,71.00
2019-05-07T21:06:57.384Z,71.30
2019-05-07T21:10:02.155Z,71.40
2019-05-07T21:13:06.831Z,71.60
2019-05-07T21:16:12.657Z,71.60
2019-05-07T21:19:17.239Z,71.80
2019-05-07T21:22:22.693Z,72.00
2019-05-07T21:25:27.325Z,72.20
2019-05-07T21:28:32.506Z,72.20
2019-05-07T21:31:36.914Z,72.40
2019-05-07T21:34:42.143Z,72.60
2019-05-07T21:37:46.956Z,72.70
2019-05-07T21:40:51.645Z,72.80
2019-05-07T21:43:56.044Z,73.00
2019-05-07T21:47:04.027Z,73.30
2019-05-07T21:50:09.110Z,73.30
2019-05-07T21:53:22.731Z,73.30
2019-05-07T21:56:44.189Z,73.40
2019-05-07T21:59:48.851Z,73.40
2019-05-07T22:02:53.934Z,73.50
2019-05-07T22:05:58.475Z,73.50
2019-05-07T22:09:02.974Z,73.70
2019-05-07T22:12:07.445Z,73.90
2019-05-07T22:15:13.133Z,74.20
2019-05-07T22:18:17.606Z,74.20
2019-05-07T22:21:24.176Z,74.20
2019-05-07T22:24:28.560Z,74.30
2019-05-07T22:27:32.917Z,74.60
2019-05-07T22:30:52.786Z,74.80
2019-05-07T22:34:16.259Z,74.80
2019-05-07T22:37:21.967Z,74.90
2019-05-07T22:40:26.442Z,74.80
2019-05-07T22:43:31.855Z,75.10
2019-05-07T22:46:36.395Z,75.00
2019-05-07T22:49:42.000Z,75.00
2019-05-07T22:52:46.788Z,75.10
2019-05-07T22:55:52.553Z,75.10
2019-05-07T22:58:57.689Z,75.30
2019-05-07T23:02:03.048Z,75.20
2019-05-07T23:05:07.654Z,75.30
2019-05-07T23:08:12.792Z,76.40
2019-05-07T23:11:17.267Z,75.40
2019-05-07T23:14:22.624Z,75.60
2019-05-07T23:17:27.236Z,75.60
2019-05-07T23:20:32.056Z,75.60
2019-05-07T23:23:36.528Z,75.60
2019-05-07T23:26:48.176Z,75.80
2019-05-07T23:29:46.783Z,75.70
2019-05-07T23:32:52.839Z,75.70
2019-05-07T23:35:57.303Z,75.90
2019-05-07T23:39:02.578Z,75.80
2019-05-07T23:42:20.466Z,75.80
2019-05-07T23:45:24.837Z,75.80
2019-05-07T23:48:29.211Z,75.80
2019-05-07T23:51:33.605Z,75.70
2019-05-07T23:54:37.880Z,75.60
2019-05-07T23:57:43.080Z,75.50
